Selby, United Kingdom
Current Conditions -  °F | °C
As of 1:50 PM on Saturday 22 Nov 2014 (Local Time) from EGXU Reporting Station
Broken Clouds Broken Clouds  
Wind Chill: 55°   Ceiling: 5000
Heat Index: 55°   Visibility: 2.3mi
Dew Point: 54°   Wind: 3mph
Humidity: 94%   Direction: 190°S
Pressure: 29.83"   Gusts: NA
Location:  53.78°N, 1.07°W
Report Text: EGXU 221350Z AUTO 19003KT 3800 // FEW005/// SCT018/// BKN050/// 13/12 Q1010
Loading
Personal Weather Stations






























Interactive Weather Map New forecast layout! Learn more

10-Day Weather Forecast

Advertisements
Track Severe Weather on mobile